KTWF/TWF METAR and TAF weather

Enter ICAO airport designator
Station Type Date Time Source
KTWF METAR 2019/08/25 12:53 UTC NOAA

KTWF 251253Z AUTO 22012KT 10SM CLR 16/02 A3003 RMK AO2 SLP111 T01560022


Station Type Date Time Source
KTWF Decoded METAR 2019/08/25 12:53 UTC NOAA

Station name not available
Aug 25, 2019 - 08:53 AM EDT / 2019.08.25 1253 UTC
Wind: from the SW (220 degrees) at 14 MPH (12 KT):0
Visibility: 10 mile(s):0
Sky conditions: clear
Temperature: 60.1 F (15.6 C)
Dew Point: 36.0 F (2.2 C)
Relative Humidity: 40%
Pressure (altimeter): 30.03 in. Hg (1016 hPa)
ob: KTWF 251253Z AUTO 22012KT 10SM CLR 16/02 A3003 RMK AO2 SLP111 T01560022
cycle: 13

Station Type Date Time Source
KTWF TAF 2019/08/25 12:27 UTC NOAA

TAF KTWF 251124Z 2512/2612 21015KT P6SM SKC
FM251900 28020G30KT P6SM SCT250
FM260300 25012KT P6SM SCT250
FM260500 21014KT P6SM SCT250

Example: see airport list